sensor_id;sensor_type;location;lat;lon;timestamp;temperature;humidity
13211;DHT22;6670;51.53087800;7.23266500;2022-11-15T00:02:41;10.90;99.90
13211;DHT22;6670;51.53087800;7.23266500;2022-11-15T00:05:29;10.90;99.90
13211;DHT22;6670;51.53087800;7.23266500;2022-11-15T00:08:30;11.00;99.90
13211;DHT22;6670;51.53087800;7.23266500;2022-11-15T00:11:17;11.00;99.90
13211;DHT22;6670;51.53087800;7.23266500;2022-11-15T00:14:03;11.10;99.90
13211;DHT22;6670;51.53087800;7.23266500;2022-11-15T00:16:50;11.10;99.90
13211;DHT22;6670;51.53087800;7.23266500;2022-11-15T00:19:36;11.10;99.90
13211;DHT22;6670;51.53087800;7.23266500;2022-11-15T00:22:22;11.10;99.90
13211;DHT22;6670;51.53087800;7.23266500;2022-11-15T00:25:08;11.10;99.90
13211;DHT22;6670;51.53087800;7.23266500;2022-11-15T00:27:56;11.10;99.90
13211;DHT22;6670;51.53087800;7.23266500;2022-11-15T00:30:42;11.20;99.90
13211;DHT22;6670;51.53087800;7.23266500;2022-11-15T00:33:28;11.20;99.90
13211;DHT22;6670;51.53087800;7.23266500;2022-11-15T00:36:15;11.30;99.90
13211;DHT22;6670;51.53087800;7.23266500;2022-11-15T00:39:04;11.30;99.90
13211;DHT22;6670;51.53087800;7.23266500;2022-11-15T00:41:50;11.40;99.90
13211;DHT22;6670;51.53087800;7.23266500;2022-11-15T00:44:38;11.40;99.90
13211;DHT22;6670;51.53087800;7.23266500;2022-11-15T00:47:24;11.50;99.90
13211;DHT22;6670;51.53087800;7.23266500;2022-11-15T00:50:10;11.50;99.90
13211;DHT22;6670;51.53087800;7.23266500;2022-11-15T00:52:56;11.50;99.90
13211;DHT22;6670;51.53087800;7.23266500;2022-11-15T00:55:42;11.60;99.90
13211;DHT22;6670;51.53087800;7.23266500;2022-11-15T00:58:29;11.50;99.90
13211;DHT22;6670;51.53087800;7.23266500;2022-11-15T01:01:16;11.50;99.90
13211;DHT22;6670;51.53087800;7.23266500;2022-11-15T01:04:03;11.50;99.90
13211;DHT22;6670;51.53087800;7.23266500;2022-11-15T01:06:49;11.60;99.90
13211;DHT22;6670;51.53087800;7.23266500;2022-11-15T01:09:35;11.60;99.90
13211;DHT22;6670;51.53087800;7.23266500;2022-11-15T01:12:21;11.70;99.90
13211;DHT22;6670;51.53087800;7.23266500;2022-11-15T01:15:08;11.70;99.90
13211;DHT22;6670;51.53087800;7.23266500;2022-11-15T01:17:56;11.70;99.90
13211;DHT22;6670;51.53087800;7.23266500;2022-11-15T01:20:42;11.70;99.90
13211;DHT22;6670;51.53087800;7.23266500;2022-11-15T01:23:28;11.80;99.90
13211;DHT22;6670;51.53087800;7.23266500;2022-11-15T01:26:15;11.80;99.90
13211;DHT22;6670;51.53087800;7.23266500;2022-11-15T01:29:01;11.80;99.90
13211;DHT22;6670;51.53087800;7.23266500;2022-11-15T01:31:48;11.90;99.90
13211;DHT22;6670;51.53087800;7.23266500;2022-11-15T01:34:35;11.90;99.90
13211;DHT22;6670;51.53087800;7.23266500;2022-11-15T01:37:21;11.90;99.90
13211;DHT22;6670;51.53087800;7.23266500;2022-11-15T01:40:08;12.00;99.90
13211;DHT22;6670;51.53087800;7.23266500;2022-11-15T01:42:54;12.00;99.90
13211;DHT22;6670;51.53087800;7.23266500;2022-11-15T01:45:40;12.00;99.90
13211;DHT22;6670;51.53087800;7.23266500;2022-11-15T01:48:31;12.10;99.90
13211;DHT22;6670;51.53087800;7.23266500;2022-11-15T01:54:33;12.10;99.90
13211;DHT22;6670;51.53087800;7.23266500;2022-11-15T01:57:20;12.20;99.90
13211;DHT22;6670;51.53087800;7.23266500;2022-11-15T02:00:07;12.20;99.90
13211;DHT22;6670;51.53087800;7.23266500;2022-11-15T02:02:53;12.20;99.90
13211;DHT22;6670;51.53087800;7.23266500;2022-11-15T02:05:40;12.20;99.90
13211;DHT22;6670;51.53087800;7.23266500;2022-11-15T02:08:27;12.10;99.90
13211;DHT22;6670;51.53087800;7.23266500;2022-11-15T02:11:14;12.20;99.90
13211;DHT22;6670;51.53087800;7.23266500;2022-11-15T02:14:01;12.30;99.90
13211;DHT22;6670;51.53087800;7.23266500;2022-11-15T02:16:58;12.20;99.90
13211;DHT22;6670;51.53087800;7.23266500;2022-11-15T02:23:31;12.30;99.90
13211;DHT22;6670;51.53087800;7.23266500;2022-11-15T02:26:46;12.20;99.90
13211;DHT22;6670;51.53087800;7.23266500;2022-11-15T02:29:55;12.20;99.90
13211;DHT22;6670;51.53087800;7.23266500;2022-11-15T02:32:49;12.20;99.90
13211;DHT22;6670;51.53087800;7.23266500;2022-11-15T02:35:43;12.20;99.90
13211;DHT22;6670;51.53087800;7.23266500;2022-11-15T02:38:37;12.20;99.90
13211;DHT22;6670;51.53087800;7.23266500;2022-11-15T02:41:31;12.30;99.90
13211;DHT22;6670;51.53087800;7.23266500;2022-11-15T02:44:24;12.30;99.90
13211;DHT22;6670;51.53087800;7.23266500;2022-11-15T02:47:13;12.30;99.90
13211;DHT22;6670;51.53087800;7.23266500;2022-11-15T02:50:07;12.30;99.90
13211;DHT22;6670;51.53087800;7.23266500;2022-11-15T02:52:55;12.30;99.90
13211;DHT22;6670;51.53087800;7.23266500;2022-11-15T02:55:44;12.30;99.90
13211;DHT22;6670;51.53087800;7.23266500;2022-11-15T02:59:07;12.30;99.90
13211;DHT22;6670;51.53087800;7.23266500;2022-11-15T03:02:10;12.30;99.90
13211;DHT22;6670;51.53087800;7.23266500;2022-11-15T03:05:08;12.30;99.90
13211;DHT22;6670;51.53087800;7.23266500;2022-11-15T03:08:01;12.30;99.90
13211;DHT22;6670;51.53087800;7.23266500;2022-11-15T03:10:56;12.20;99.90
13211;DHT22;6670;51.53087800;7.23266500;2022-11-15T03:13:49;12.30;99.90
13211;DHT22;6670;51.53087800;7.23266500;2022-11-15T03:16:42;12.30;99.90
13211;DHT22;6670;51.53087800;7.23266500;2022-11-15T03:19:34;12.30;99.90
13211;DHT22;6670;51.53087800;7.23266500;2022-11-15T03:22:25;12.30;99.90
13211;DHT22;6670;51.53087800;7.23266500;2022-11-15T03:25:16;12.30;99.90
13211;DHT22;6670;51.53087800;7.23266500;2022-11-15T03:28:05;12.30;99.90
13211;DHT22;6670;51.53087800;7.23266500;2022-11-15T03:30:55;12.30;99.90
13211;DHT22;6670;51.53087800;7.23266500;2022-11-15T03:33:43;12.30;99.90
13211;DHT22;6670;51.53087800;7.23266500;2022-11-15T03:36:30;12.30;99.90
13211;DHT22;6670;51.53087800;7.23266500;2022-11-15T03:39:20;12.40;99.90
13211;DHT22;6670;51.53087800;7.23266500;2022-11-15T03:42:13;12.40;99.90
13211;DHT22;6670;51.53087800;7.23266500;2022-11-15T03:45:10;12.40;99.90
13211;DHT22;6670;51.53087800;7.23266500;2022-11-15T03:48:01;12.40;99.90
13211;DHT22;6670;51.53087800;7.23266500;2022-11-15T03:50:48;12.50;99.90
13211;DHT22;6670;51.53087800;7.23266500;2022-11-15T03:53:34;12.50;99.90
13211;DHT22;6670;51.53087800;7.23266500;2022-11-15T03:56:22;12.50;99.90
13211;DHT22;6670;51.53087800;7.23266500;2022-11-15T03:59:08;12.50;99.90
13211;DHT22;6670;51.53087800;7.23266500;2022-11-15T04:01:54;12.50;99.90
13211;DHT22;6670;51.53087800;7.23266500;2022-11-15T04:04:45;12.50;99.90
13211;DHT22;6670;51.53087800;7.23266500;2022-11-15T04:07:31;12.50;99.90
13211;DHT22;6670;51.53087800;7.23266500;2022-11-15T04:10:18;12.50;99.90
13211;DHT22;6670;51.53087800;7.23266500;2022-11-15T04:13:05;12.50;99.90
13211;DHT22;6670;51.53087800;7.23266500;2022-11-15T04:15:51;12.50;99.90
13211;DHT22;6670;51.53087800;7.23266500;2022-11-15T04:18:38;12.40;99.90
13211;DHT22;6670;51.53087800;7.23266500;2022-11-15T04:21:24;12.40;99.90
13211;DHT22;6670;51.53087800;7.23266500;2022-11-15T04:24:27;12.50;99.90
13211;DHT22;6670;51.53087800;7.23266500;2022-11-15T04:27:13;12.40;99.90
13211;DHT22;6670;51.53087800;7.23266500;2022-11-15T04:30:01;12.40;99.90
13211;DHT22;6670;51.53087800;7.23266500;2022-11-15T04:32:46;12.40;99.90
13211;DHT22;6670;51.53087800;7.23266500;2022-11-15T04:35:33;12.50;99.90
13211;DHT22;6670;51.53087800;7.23266500;2022-11-15T04:38:18;12.50;99.90
13211;DHT22;6670;51.53087800;7.23266500;2022-11-15T04:41:05;12.50;99.90
13211;DHT22;6670;51.53087800;7.23266500;2022-11-15T04:43:51;12.50;99.90
13211;DHT22;6670;51.53087800;7.23266500;2022-11-15T04:46:38;12.50;99.90
13211;DHT22;6670;51.53087800;7.23266500;2022-11-15T04:49:24;12.50;99.90
13211;DHT22;6670;51.53087800;7.23266500;2022-11-15T04:52:10;12.50;99.90
13211;DHT22;6670;51.53087800;7.23266500;2022-11-15T04:55:13;12.60;99.90
13211;DHT22;6670;51.53087800;7.23266500;2022-11-15T04:58:00;12.60;99.90
13211;DHT22;6670;51.53087800;7.23266500;2022-11-15T05:00:46;12.60;99.90
13211;DHT22;6670;51.53087800;7.23266500;2022-11-15T05:03:33;12.60;99.90
13211;DHT22;6670;51.53087800;7.23266500;2022-11-15T05:06:37;12.60;99.90
13211;DHT22;6670;51.53087800;7.23266500;2022-11-15T05:09:23;12.60;99.90
13211;DHT22;6670;51.53087800;7.23266500;2022-11-15T05:12:09;12.60;99.90
13211;DHT22;6670;51.53087800;7.23266500;2022-11-15T05:14:55;12.60;99.90
13211;DHT22;6670;51.53087800;7.23266500;2022-11-15T05:17:41;12.60;99.90
13211;DHT22;6670;51.53087800;7.23266500;2022-11-15T05:20:29;12.70;99.90
13211;DHT22;6670;51.53087800;7.23266500;2022-11-15T05:23:15;12.70;99.90
13211;DHT22;6670;51.53087800;7.23266500;2022-11-15T05:26:01;12.70;99.90
13211;DHT22;6670;51.53087800;7.23266500;2022-11-15T05:28:52;12.70;99.90
13211;DHT22;6670;51.53087800;7.23266500;2022-11-15T05:31:39;12.60;99.90
13211;DHT22;6670;51.53087800;7.23266500;2022-11-15T05:34:26;12.70;99.90
13211;DHT22;6670;51.53087800;7.23266500;2022-11-15T05:37:14;12.70;99.90
13211;DHT22;6670;51.53087800;7.23266500;2022-11-15T05:40:00;12.70;99.90
13211;DHT22;6670;51.53087800;7.23266500;2022-11-15T05:42:47;12.70;99.90
13211;DHT22;6670;51.53087800;7.23266500;2022-11-15T05:45:33;12.70;99.90
13211;DHT22;6670;51.53087800;7.23266500;2022-11-15T05:48:20;12.70;99.90
13211;DHT22;6670;51.53087800;7.23266500;2022-11-15T05:51:07;12.70;99.90
13211;DHT22;6670;51.53087800;7.23266500;2022-11-15T05:53:56;12.70;99.90
13211;DHT22;6670;51.53087800;7.23266500;2022-11-15T05:56:42;12.70;99.90
13211;DHT22;6670;51.53087800;7.23266500;2022-11-15T05:59:29;12.70;99.90
13211;DHT22;6670;51.53087800;7.23266500;2022-11-15T06:02:15;12.70;99.90
13211;DHT22;6670;51.53087800;7.23266500;2022-11-15T06:05:15;12.70;99.90
13211;DHT22;6670;51.53087800;7.23266500;2022-11-15T06:08:03;12.70;99.90
13211;DHT22;6670;51.53087800;7.23266500;2022-11-15T06:10:51;12.70;99.90
13211;DHT22;6670;51.53087800;7.23266500;2022-11-15T06:13:36;12.70;99.90
13211;DHT22;6670;51.53087800;7.23266500;2022-11-15T06:16:22;12.70;99.90
13211;DHT22;6670;51.53087800;7.23266500;2022-11-15T06:19:12;12.70;99.90
13211;DHT22;6670;51.53087800;7.23266500;2022-11-15T06:22:08;12.60;99.90
13211;DHT22;6670;51.53087800;7.23266500;2022-11-15T06:24:54;12.50;99.90
13211;DHT22;6670;51.53087800;7.23266500;2022-11-15T06:27:42;12.50;99.90
13211;DHT22;6670;51.53087800;7.23266500;2022-11-15T06:30:28;12.50;99.90
13211;DHT22;6670;51.53087800;7.23266500;2022-11-15T06:33:15;12.50;99.90
13211;DHT22;6670;51.53087800;7.23266500;2022-11-15T06:36:01;12.50;99.90
13211;DHT22;6670;51.53087800;7.23266500;2022-11-15T06:38:48;12.50;99.90
13211;DHT22;6670;51.53087800;7.23266500;2022-11-15T06:41:34;12.50;99.90
13211;DHT22;6670;51.53087800;7.23266500;2022-11-15T06:44:22;12.60;99.90
13211;DHT22;6670;51.53087800;7.23266500;2022-11-15T06:47:46;12.60;99.90
13211;DHT22;6670;51.53087800;7.23266500;2022-11-15T06:50:38;12.70;99.90
13211;DHT22;6670;51.53087800;7.23266500;2022-11-15T06:53:24;12.70;99.90
13211;DHT22;6670;51.53087800;7.23266500;2022-11-15T06:56:10;12.70;99.90
13211;DHT22;6670;51.53087800;7.23266500;2022-11-15T06:58:57;12.80;99.90
13211;DHT22;6670;51.53087800;7.23266500;2022-11-15T07:01:49;12.80;99.90
13211;DHT22;6670;51.53087800;7.23266500;2022-11-15T07:04:38;12.80;99.90
13211;DHT22;6670;51.53087800;7.23266500;2022-11-15T07:07:24;13.50;99.90
13211;DHT22;6670;51.53087800;7.23266500;2022-11-15T07:10:10;13.40;99.90
13211;DHT22;6670;51.53087800;7.23266500;2022-11-15T07:13:04;13.10;99.90
13211;DHT22;6670;51.53087800;7.23266500;2022-11-15T07:15:50;13.10;99.90
13211;DHT22;6670;51.53087800;7.23266500;2022-11-15T07:18:39;13.00;99.90
13211;DHT22;6670;51.53087800;7.23266500;2022-11-15T07:21:25;13.10;99.90
13211;DHT22;6670;51.53087800;7.23266500;2022-11-15T07:24:11;13.10;99.90
13211;DHT22;6670;51.53087800;7.23266500;2022-11-15T07:26:57;13.00;99.90
13211;DHT22;6670;51.53087800;7.23266500;2022-11-15T07:29:44;13.10;99.90
13211;DHT22;6670;51.53087800;7.23266500;2022-11-15T07:32:30;13.00;99.90
13211;DHT22;6670;51.53087800;7.23266500;2022-11-15T07:35:18;13.00;99.90
13211;DHT22;6670;51.53087800;7.23266500;2022-11-15T07:38:04;13.10;99.90
13211;DHT22;6670;51.53087800;7.23266500;2022-11-15T07:40:56;13.10;99.90
13211;DHT22;6670;51.53087800;7.23266500;2022-11-15T07:43:42;13.00;99.90
13211;DHT22;6670;51.53087800;7.23266500;2022-11-15T07:46:29;13.00;99.90
13211;DHT22;6670;51.53087800;7.23266500;2022-11-15T07:49:15;13.00;99.90
13211;DHT22;6670;51.53087800;7.23266500;2022-11-15T07:52:02;13.00;99.90
13211;DHT22;6670;51.53087800;7.23266500;2022-11-15T07:54:48;12.90;99.90
13211;DHT22;6670;51.53087800;7.23266500;2022-11-15T07:57:34;12.90;99.90
13211;DHT22;6670;51.53087800;7.23266500;2022-11-15T08:00:22;12.80;99.90
13211;DHT22;6670;51.53087800;7.23266500;2022-11-15T08:03:09;12.80;99.90
13211;DHT22;6670;51.53087800;7.23266500;2022-11-15T08:05:55;12.80;99.90
13211;DHT22;6670;51.53087800;7.23266500;2022-11-15T08:08:43;12.80;99.90
13211;DHT22;6670;51.53087800;7.23266500;2022-11-15T08:11:29;12.80;99.90
13211;DHT22;6670;51.53087800;7.23266500;2022-11-15T08:14:15;12.80;99.90
13211;DHT22;6670;51.53087800;7.23266500;2022-11-15T08:17:01;12.80;99.90
13211;DHT22;6670;51.53087800;7.23266500;2022-11-15T08:19:47;12.80;99.90
13211;DHT22;6670;51.53087800;7.23266500;2022-11-15T08:22:33;12.80;99.90
13211;DHT22;6670;51.53087800;7.23266500;2022-11-15T08:25:24;12.80;99.90
13211;DHT22;6670;51.53087800;7.23266500;2022-11-15T08:28:20;13.10;99.90
13211;DHT22;6670;51.53087800;7.23266500;2022-11-15T08:31:06;13.40;99.90
13211;DHT22;6670;51.53087800;7.23266500;2022-11-15T08:33:52;13.30;99.90
13211;DHT22;6670;51.53087800;7.23266500;2022-11-15T08:36:39;13.00;99.90
13211;DHT22;6670;51.53087800;7.23266500;2022-11-15T08:39:26;12.90;99.90
13211;DHT22;6670;51.53087800;7.23266500;2022-11-15T08:42:13;13.00;99.90
13211;DHT22;6670;51.53087800;7.23266500;2022-11-15T08:44:59;13.00;99.90
13211;DHT22;6670;51.53087800;7.23266500;2022-11-15T08:47:45;13.00;99.90
13211;DHT22;6670;51.53087800;7.23266500;2022-11-15T08:50:31;13.00;99.90
13211;DHT22;6670;51.53087800;7.23266500;2022-11-15T08:53:18;13.00;99.90
13211;DHT22;6670;51.53087800;7.23266500;2022-11-15T08:56:07;13.00;99.90
13211;DHT22;6670;51.53087800;7.23266500;2022-11-15T08:58:55;13.00;99.90
13211;DHT22;6670;51.53087800;7.23266500;2022-11-15T09:01:41;13.10;99.90
13211;DHT22;6670;51.53087800;7.23266500;2022-11-15T09:04:27;13.10;99.90
13211;DHT22;6670;51.53087800;7.23266500;2022-11-15T09:07:13;13.10;99.90
13211;DHT22;6670;51.53087800;7.23266500;2022-11-15T09:09:59;13.10;99.90
13211;DHT22;6670;51.53087800;7.23266500;2022-11-15T09:12:45;13.10;99.90
13211;DHT22;6670;51.53087800;7.23266500;2022-11-15T09:15:34;13.10;99.90
13211;DHT22;6670;51.53087800;7.23266500;2022-11-15T09:18:20;13.10;99.90
13211;DHT22;6670;51.53087800;7.23266500;2022-11-15T09:21:07;13.10;99.90
13211;DHT22;6670;51.53087800;7.23266500;2022-11-15T09:23:53;13.10;99.90
13211;DHT22;6670;51.53087800;7.23266500;2022-11-15T09:26:43;13.10;99.90
13211;DHT22;6670;51.53087800;7.23266500;2022-11-15T09:29:29;13.10;99.90
13211;DHT22;6670;51.53087800;7.23266500;2022-11-15T09:32:17;13.20;99.90
13211;DHT22;6670;51.53087800;7.23266500;2022-11-15T09:35:03;13.20;99.90
13211;DHT22;6670;51.53087800;7.23266500;2022-11-15T09:37:57;13.30;99.90
13211;DHT22;6670;51.53087800;7.23266500;2022-11-15T09:40:43;13.30;99.90
13211;DHT22;6670;51.53087800;7.23266500;2022-11-15T09:43:39;13.20;99.90
13211;DHT22;6670;51.53087800;7.23266500;2022-11-15T09:46:34;13.30;99.90
13211;DHT22;6670;51.53087800;7.23266500;2022-11-15T09:49:24;13.30;99.90
13211;DHT22;6670;51.53087800;7.23266500;2022-11-15T09:52:12;13.40;99.90
13211;DHT22;6670;51.53087800;7.23266500;2022-11-15T09:54:47;13.40;99.90
13211;DHT22;6670;51.53087800;7.23266500;2022-11-15T09:57:18;13.50;99.90
13211;DHT22;6670;51.53087800;7.23266500;2022-11-15T09:59:59;13.60;99.90
13211;DHT22;6670;51.53087800;7.23266500;2022-11-15T10:02:41;13.80;99.90
13211;DHT22;6670;51.53087800;7.23266500;2022-11-15T10:05:16;14.00;99.90
13211;DHT22;6670;51.53087800;7.23266500;2022-11-15T10:07:50;13.90;99.90
13211;DHT22;6670;51.53087800;7.23266500;2022-11-15T10:10:26;13.90;99.90
13211;DHT22;6670;51.53087800;7.23266500;2022-11-15T10:12:55;13.80;99.90
13211;DHT22;6670;51.53087800;7.23266500;2022-11-15T10:15:23;13.80;99.90
13211;DHT22;6670;51.53087800;7.23266500;2022-11-15T10:18:15;13.70;99.90
13211;DHT22;6670;51.53087800;7.23266500;2022-11-15T10:20:50;13.80;99.90
13211;DHT22;6670;51.53087800;7.23266500;2022-11-15T10:23:21;13.90;99.90
13211;DHT22;6670;51.53087800;7.23266500;2022-11-15T10:25:52;13.90;99.90
13211;DHT22;6670;51.53087800;7.23266500;2022-11-15T10:28:26;14.00;99.90
13211;DHT22;6670;51.53087800;7.23266500;2022-11-15T10:30:56;14.00;99.90
13211;DHT22;6670;51.53087800;7.23266500;2022-11-15T10:33:34;14.00;99.90
13211;DHT22;6670;51.53087800;7.23266500;2022-11-15T10:36:20;14.00;99.90
13211;DHT22;6670;51.53087800;7.23266500;2022-11-15T10:38:56;14.20;99.90
13211;DHT22;6670;51.53087800;7.23266500;2022-11-15T10:41:32;14.00;99.90
13211;DHT22;6670;51.53087800;7.23266500;2022-11-15T10:44:21;14.00;99.90
13211;DHT22;6670;51.53087800;7.23266500;2022-11-15T10:47:06;14.10;99.90
13211;DHT22;6670;51.53087800;7.23266500;2022-11-15T10:49:34;14.10;99.90
13211;DHT22;6670;51.53087800;7.23266500;2022-11-15T10:52:14;14.20;99.90
13211;DHT22;6670;51.53087800;7.23266500;2022-11-15T10:54:44;14.40;99.90
13211;DHT22;6670;51.53087800;7.23266500;2022-11-15T10:57:15;14.60;99.90
13211;DHT22;6670;51.53087800;7.23266500;2022-11-15T10:59:46;15.10;99.90
13211;DHT22;6670;51.53087800;7.23266500;2022-11-15T11:02:32;15.00;99.70
13211;DHT22;6670;51.53087800;7.23266500;2022-11-15T11:05:01;15.00;99.30
13211;DHT22;6670;51.53087800;7.23266500;2022-11-15T11:07:32;15.30;99.40
13211;DHT22;6670;51.53087800;7.23266500;2022-11-15T11:10:01;15.50;99.10
13211;DHT22;6670;51.53087800;7.23266500;2022-11-15T11:12:31;15.50;98.10
13211;DHT22;6670;51.53087800;7.23266500;2022-11-15T11:15:01;15.30;98.70
13211;DHT22;6670;51.53087800;7.23266500;2022-11-15T11:17:41;15.60;98.10
13211;DHT22;6670;51.53087800;7.23266500;2022-11-15T11:20:18;15.60;98.00
13211;DHT22;6670;51.53087800;7.23266500;2022-11-15T11:22:58;15.70;95.40
13211;DHT22;6670;51.53087800;7.23266500;2022-11-15T11:26:29;15.90;95.40
13211;DHT22;6670;51.53087800;7.23266500;2022-11-15T11:29:41;16.00;92.60
13211;DHT22;6670;51.53087800;7.23266500;2022-11-15T11:32:43;16.10;93.20
13211;DHT22;6670;51.53087800;7.23266500;2022-11-15T11:35:20;16.20;92.10
13211;DHT22;6670;51.53087800;7.23266500;2022-11-15T11:37:52;15.90;92.40
13211;DHT22;6670;51.53087800;7.23266500;2022-11-15T11:40:28;16.40;92.50
13211;DHT22;6670;51.53087800;7.23266500;2022-11-15T11:43:02;16.20;92.40
13211;DHT22;6670;51.53087800;7.23266500;2022-11-15T11:45:53;15.80;92.30
13211;DHT22;6670;51.53087800;7.23266500;2022-11-15T11:48:34;16.00;92.10
13211;DHT22;6670;51.53087800;7.23266500;2022-11-15T11:51:12;16.00;91.50
13211;DHT22;6670;51.53087800;7.23266500;2022-11-15T11:53:46;16.30;90.90
13211;DHT22;6670;51.53087800;7.23266500;2022-11-15T11:56:21;16.30;90.30
13211;DHT22;6670;51.53087800;7.23266500;2022-11-15T11:58:50;16.20;90.90
13211;DHT22;6670;51.53087800;7.23266500;2022-11-15T12:01:23;16.40;90.10
13211;DHT22;6670;51.53087800;7.23266500;2022-11-15T12:03:56;16.90;85.80
13211;DHT22;6670;51.53087800;7.23266500;2022-11-15T12:06:31;16.90;86.50
13211;DHT22;6670;51.53087800;7.23266500;2022-11-15T12:09:04;17.60;84.40
13211;DHT22;6670;51.53087800;7.23266500;2022-11-15T12:11:51;16.90;83.40
13211;DHT22;6670;51.53087800;7.23266500;2022-11-15T12:14:28;16.90;84.60
13211;DHT22;6670;51.53087800;7.23266500;2022-11-15T12:16:58;16.70;84.30
13211;DHT22;6670;51.53087800;7.23266500;2022-11-15T12:19:26;17.00;84.00
13211;DHT22;6670;51.53087800;7.23266500;2022-11-15T12:21:59;17.60;84.40
13211;DHT22;6670;51.53087800;7.23266500;2022-11-15T12:24:33;17.10;78.70
13211;DHT22;6670;51.53087800;7.23266500;2022-11-15T12:27:05;16.80;75.50
13211;DHT22;6670;51.53087800;7.23266500;2022-11-15T12:29:37;16.70;74.10
13211;DHT22;6670;51.53087800;7.23266500;2022-11-15T12:32:17;16.50;73.70
13211;DHT22;6670;51.53087800;7.23266500;2022-11-15T12:34:49;17.00;75.30
13211;DHT22;6670;51.53087800;7.23266500;2022-11-15T12:37:48;17.20;73.50
13211;DHT22;6670;51.53087800;7.23266500;2022-11-15T12:40:23;16.80;73.00
13211;DHT22;6670;51.53087800;7.23266500;2022-11-15T12:43:00;17.00;73.20
13211;DHT22;6670;51.53087800;7.23266500;2022-11-15T12:45:30;17.00;71.60
13211;DHT22;6670;51.53087800;7.23266500;2022-11-15T12:54:58;16.60;73.10
13211;DHT22;6670;51.53087800;7.23266500;2022-11-15T12:57:38;16.50;73.10
13211;DHT22;6670;51.53087800;7.23266500;2022-11-15T13:03:24;16.70;74.70
13211;DHT22;6670;51.53087800;7.23266500;2022-11-15T13:06:04;16.70;74.40
13211;DHT22;6670;51.53087800;7.23266500;2022-11-15T13:08:45;17.00;74.30
13211;DHT22;6670;51.53087800;7.23266500;2022-11-15T13:11:49;16.90;75.40
13211;DHT22;6670;51.53087800;7.23266500;2022-11-15T13:14:44;16.60;77.00
13211;DHT22;6670;51.53087800;7.23266500;2022-11-15T13:17:30;16.50;78.90
13211;DHT22;6670;51.53087800;7.23266500;2022-11-15T13:22:45;17.30;76.40
13211;DHT22;6670;51.53087800;7.23266500;2022-11-15T13:26:08;17.00;76.30
13211;DHT22;6670;51.53087800;7.23266500;2022-11-15T13:28:39;17.00;77.10
13211;DHT22;6670;51.53087800;7.23266500;2022-11-15T13:31:39;16.80;77.10
13211;DHT22;6670;51.53087800;7.23266500;2022-11-15T13:34:26;16.60;77.30
13211;DHT22;6670;51.53087800;7.23266500;2022-11-15T13:36:54;16.60;77.80
13211;DHT22;6670;51.53087800;7.23266500;2022-11-15T13:39:28;16.30;78.40
13211;DHT22;6670;51.53087800;7.23266500;2022-11-15T13:41:56;16.40;79.60
13211;DHT22;6670;51.53087800;7.23266500;2022-11-15T13:44:25;16.50;81.10
13211;DHT22;6670;51.53087800;7.23266500;2022-11-15T13:47:06;16.40;80.70
13211;DHT22;6670;51.53087800;7.23266500;2022-11-15T13:49:35;16.20;82.20
13211;DHT22;6670;51.53087800;7.23266500;2022-11-15T13:52:06;16.30;83.50
13211;DHT22;6670;51.53087800;7.23266500;2022-11-15T13:54:36;16.30;83.10
13211;DHT22;6670;51.53087800;7.23266500;2022-11-15T13:57:11;16.10;83.70
13211;DHT22;6670;51.53087800;7.23266500;2022-11-15T13:59:45;16.10;85.40
13211;DHT22;6670;51.53087800;7.23266500;2022-11-15T14:02:24;16.00;86.10
13211;DHT22;6670;51.53087800;7.23266500;2022-11-15T14:04:55;15.60;87.70
13211;DHT22;6670;51.53087800;7.23266500;2022-11-15T14:07:26;15.40;89.60
13211;DHT22;6670;51.53087800;7.23266500;2022-11-15T14:09:57;15.20;90.60
13211;DHT22;6670;51.53087800;7.23266500;2022-11-15T14:12:50;15.20;91.20
13211;DHT22;6670;51.53087800;7.23266500;2022-11-15T14:15:26;15.20;91.80
13211;DHT22;6670;51.53087800;7.23266500;2022-11-15T14:17:55;15.20;92.20
13211;DHT22;6670;51.53087800;7.23266500;2022-11-15T14:20:32;15.00;93.00
13211;DHT22;6670;51.53087800;7.23266500;2022-11-15T14:23:01;15.00;93.40
13211;DHT22;6670;51.53087800;7.23266500;2022-11-15T14:25:31;14.90;93.90
13211;DHT22;6670;51.53087800;7.23266500;2022-11-15T14:28:12;14.90;94.60
13211;DHT22;6670;51.53087800;7.23266500;2022-11-15T14:30:42;14.80;95.20
13211;DHT22;6670;51.53087800;7.23266500;2022-11-15T14:33:25;14.70;96.20
13211;DHT22;6670;51.53087800;7.23266500;2022-11-15T14:35:56;14.80;96.20
13211;DHT22;6670;51.53087800;7.23266500;2022-11-15T14:38:24;14.70;96.80
13211;DHT22;6670;51.53087800;7.23266500;2022-11-15T14:40:59;14.70;97.00
13211;DHT22;6670;51.53087800;7.23266500;2022-11-15T14:43:29;14.60;97.50
13211;DHT22;6670;51.53087800;7.23266500;2022-11-15T14:45:57;14.70;97.60
13211;DHT22;6670;51.53087800;7.23266500;2022-11-15T14:48:33;14.50;98.40
13211;DHT22;6670;51.53087800;7.23266500;2022-11-15T14:51:01;14.60;98.30
13211;DHT22;6670;51.53087800;7.23266500;2022-11-15T14:53:31;14.50;99.20
13211;DHT22;6670;51.53087800;7.23266500;2022-11-15T14:55:59;14.50;99.00
13211;DHT22;6670;51.53087800;7.23266500;2022-11-15T14:58:26;14.50;99.10
13211;DHT22;6670;51.53087800;7.23266500;2022-11-15T15:00:54;14.50;99.50
13211;DHT22;6670;51.53087800;7.23266500;2022-11-15T15:03:23;14.50;99.60
13211;DHT22;6670;51.53087800;7.23266500;2022-11-15T15:05:56;14.40;99.90
13211;DHT22;6670;51.53087800;7.23266500;2022-11-15T15:08:26;14.40;99.90
13211;DHT22;6670;51.53087800;7.23266500;2022-11-15T15:11:00;14.30;99.90
13211;DHT22;6670;51.53087800;7.23266500;2022-11-15T15:13:27;14.30;99.90
13211;DHT22;6670;51.53087800;7.23266500;2022-11-15T15:15:56;14.40;99.90
13211;DHT22;6670;51.53087800;7.23266500;2022-11-15T15:18:23;14.40;99.90
13211;DHT22;6670;51.53087800;7.23266500;2022-11-15T15:20:56;14.30;99.90
13211;DHT22;6670;51.53087800;7.23266500;2022-11-15T15:23:26;14.30;99.90
13211;DHT22;6670;51.53087800;7.23266500;2022-11-15T15:25:57;14.30;99.90
13211;DHT22;6670;51.53087800;7.23266500;2022-11-15T15:28:27;14.30;99.90